createdAt,value
2023-03-14T00:00:11.000Z,11.67
2023-03-14T00:01:16.000Z,11.66
2023-03-14T00:02:07.000Z,11.68
2023-03-14T00:03:06.000Z,11.69
2023-03-14T00:04:07.000Z,11.67
2023-03-14T00:05:08.000Z,11.67
2023-03-14T00:06:08.000Z,11.68
2023-03-14T00:07:07.000Z,11.71
2023-03-14T00:08:07.000Z,11.72
2023-03-14T00:09:07.000Z,11.72
2023-03-14T00:10:13.000Z,11.72
2023-03-14T00:11:12.000Z,11.73
2023-03-14T00:12:08.000Z,11.73
2023-03-14T00:13:07.000Z,11.73
2023-03-14T00:14:07.000Z,11.73
2023-03-14T00:15:08.000Z,11.73
2023-03-14T00:16:10.000Z,11.73
2023-03-14T00:17:07.000Z,11.72
2023-03-14T00:18:07.000Z,11.76
2023-03-14T00:19:07.000Z,11.73
2023-03-14T00:20:11.000Z,11.75
2023-03-14T00:21:09.000Z,11.77
2023-03-14T00:22:07.000Z,11.78
2023-03-14T00:23:07.000Z,11.78
2023-03-14T00:24:07.000Z,11.79
2023-03-14T00:25:09.000Z,11.79
2023-03-14T00:26:12.000Z,11.80
2023-03-14T00:27:07.000Z,11.79
2023-03-14T00:28:07.000Z,11.79
2023-03-14T00:29:07.000Z,11.82
2023-03-14T00:30:08.000Z,11.80
2023-03-14T00:31:10.000Z,11.82
2023-03-14T00:32:07.000Z,11.80
2023-03-14T00:33:07.000Z,11.81
2023-03-14T00:34:07.000Z,11.82
2023-03-14T00:35:07.000Z,11.81
2023-03-14T00:36:14.000Z,11.80
2023-03-14T00:37:07.000Z,11.82
2023-03-14T00:38:07.000Z,11.81
2023-03-14T00:39:07.000Z,11.82
2023-03-14T00:40:08.000Z,11.83
2023-03-14T00:41:09.000Z,11.81
2023-03-14T00:42:07.000Z,11.83
2023-03-14T00:43:07.000Z,11.83
2023-03-14T00:44:07.000Z,11.82
2023-03-14T00:45:09.000Z,11.84
2023-03-14T00:46:08.000Z,11.85
2023-03-14T00:47:07.000Z,11.83
2023-03-14T00:48:07.000Z,11.83
2023-03-14T00:49:07.000Z,11.81
2023-03-14T00:50:08.000Z,11.83
2023-03-14T00:51:08.000Z,11.83
2023-03-14T00:52:07.000Z,11.81
2023-03-14T00:53:07.000Z,11.83
2023-03-14T00:54:08.000Z,11.84
2023-03-14T00:55:07.000Z,11.83
2023-03-14T00:56:11.000Z,11.83
2023-03-14T00:57:07.000Z,11.81
2023-03-14T00:58:07.000Z,11.84
2023-03-14T00:59:07.000Z,11.83
2023-03-14T01:00:11.000Z,11.83
2023-03-14T01:01:09.000Z,11.83
2023-03-14T01:02:07.000Z,11.82
2023-03-14T01:03:08.000Z,11.83
2023-03-14T01:04:07.000Z,11.83
2023-03-14T01:05:07.000Z,11.82
2023-03-14T01:06:13.000Z,11.83
2023-03-14T01:07:07.000Z,11.83
2023-03-14T01:08:08.000Z,11.83
2023-03-14T01:09:07.000Z,11.84
2023-03-14T01:10:08.000Z,11.84
2023-03-14T01:11:15.000Z,11.84
2023-03-14T01:12:07.000Z,11.85
2023-03-14T01:13:08.000Z,11.82
2023-03-14T01:14:07.000Z,11.84
2023-03-14T01:15:07.000Z,11.85
2023-03-14T01:16:09.000Z,11.84
2023-03-14T01:17:07.000Z,11.84
2023-03-14T01:18:07.000Z,11.85
2023-03-14T01:19:07.000Z,11.88
2023-03-14T01:20:11.000Z,11.87
2023-03-14T01:21:13.000Z,11.88
2023-03-14T01:22:06.000Z,11.91
2023-03-14T01:23:06.000Z,11.90
2023-03-14T01:24:09.000Z,11.90
2023-03-14T01:25:09.000Z,11.89
2023-03-14T01:26:13.000Z,11.87
2023-03-14T01:27:06.000Z,11.88
2023-03-14T01:28:07.000Z,11.84
2023-03-14T01:29:06.000Z,11.84
2023-03-14T01:30:09.000Z,11.84
2023-03-14T01:31:09.000Z,11.80
2023-03-14T01:32:06.000Z,11.81
2023-03-14T01:33:06.000Z,11.80
2023-03-14T01:34:06.000Z,11.81
2023-03-14T01:35:06.000Z,11.79
2023-03-14T01:36:08.000Z,11.79
2023-03-14T01:37:07.000Z,11.79
2023-03-14T01:38:06.000Z,11.78
2023-03-14T01:39:08.000Z,11.76
2023-03-14T01:40:09.000Z,11.76
2023-03-14T01:41:10.000Z,11.77
2023-03-14T01:42:06.000Z,11.75
2023-03-14T01:43:14.000Z,11.77
2023-03-14T01:44:10.000Z,11.77
2023-03-14T01:45:16.000Z,11.78
2023-03-14T01:46:18.000Z,11.78
2023-03-14T01:47:06.000Z,11.79
2023-03-14T01:48:06.000Z,11.79
2023-03-14T01:49:14.000Z,11.80
2023-03-14T01:50:11.000Z,11.80
2023-03-14T01:51:15.000Z,11.81
2023-03-14T01:52:12.000Z,11.83
2023-03-14T01:53:06.000Z,11.81
2023-03-14T01:54:12.000Z,11.83
2023-03-14T01:55:15.000Z,11.81
2023-03-14T01:56:12.000Z,11.80
2023-03-14T01:57:16.000Z,11.83
2023-03-14T01:58:07.000Z,11.80
2023-03-14T01:59:09.000Z,11.79
2023-03-14T02:00:14.000Z,11.79
2023-03-14T02:01:08.000Z,11.79
2023-03-14T02:02:10.000Z,11.80
2023-03-14T02:03:13.000Z,11.79
2023-03-14T02:04:08.000Z,11.79
2023-03-14T02:05:09.000Z,11.80
2023-03-14T02:06:07.000Z,11.79
2023-03-14T02:07:15.000Z,11.78
2023-03-14T02:08:10.000Z,11.78
2023-03-14T02:09:06.000Z,11.78
2023-03-14T02:10:08.000Z,11.77
2023-03-14T02:11:08.000Z,11.74
2023-03-14T02:12:08.000Z,11.73
2023-03-14T02:13:07.000Z,11.73
2023-03-14T02:14:13.000Z,11.71
2023-03-14T02:15:07.000Z,11.70
2023-03-14T02:16:07.000Z,11.66
2023-03-14T02:17:07.000Z,11.67
2023-03-14T02:18:07.000Z,11.66
2023-03-14T02:19:08.000Z,11.66
2023-03-14T02:20:32.000Z,11.66
2023-03-14T02:21:17.000Z,11.67
2023-03-14T02:22:12.000Z,11.65
2023-03-14T02:23:07.000Z,11.65
2023-03-14T02:24:17.000Z,11.65
2023-03-14T02:25:17.000Z,11.61
2023-03-14T02:26:16.000Z,11.62
2023-03-14T02:27:15.000Z,11.59
2023-03-14T02:28:07.000Z,11.58
2023-03-14T02:29:07.000Z,11.58
2023-03-14T02:30:17.000Z,11.57
2023-03-14T02:31:08.000Z,11.54
2023-03-14T02:32:07.000Z,11.57
2023-03-14T02:33:10.000Z,11.54
2023-03-14T02:34:07.000Z,11.52
2023-03-14T02:35:10.000Z,11.53
2023-03-14T02:36:11.000Z,11.51
2023-03-14T02:37:07.000Z,11.52
2023-03-14T02:38:23.000Z,11.53
2023-03-14T02:39:27.000Z,11.51
2023-03-14T02:40:08.000Z,11.51
2023-03-14T02:41:07.000Z,11.49
2023-03-14T02:42:07.000Z,11.48
2023-03-14T02:43:07.000Z,11.48
2023-03-14T02:44:07.000Z,11.45
2023-03-14T02:45:31.000Z,11.46
2023-03-14T02:46:11.000Z,11.46
2023-03-14T02:47:07.000Z,11.45
2023-03-14T02:48:12.000Z,11.44
2023-03-14T02:49:11.000Z,11.44
2023-03-14T02:50:14.000Z,11.47
2023-03-14T02:51:08.000Z,11.43
2023-03-14T02:52:06.000Z,11.44
2023-03-14T02:53:06.000Z,11.43
2023-03-14T02:54:07.000Z,11.43
2023-03-14T02:55:07.000Z,11.41
2023-03-14T02:56:07.000Z,11.42
2023-03-14T02:57:06.000Z,11.42
2023-03-14T02:58:07.000Z,11.41
2023-03-14T02:59:06.000Z,11.42
2023-03-14T03:00:08.000Z,11.41
2023-03-14T03:01:06.000Z,11.41
2023-03-14T03:02:06.000Z,11.39
2023-03-14T03:03:06.000Z,11.42
2023-03-14T03:04:06.000Z,11.40
2023-03-14T03:05:07.000Z,11.37
2023-03-14T03:06:06.000Z,11.37
2023-03-14T03:07:07.000Z,11.36
2023-03-14T03:08:07.000Z,11.36
2023-03-14T03:09:06.000Z,11.36
2023-03-14T03:10:07.000Z,11.37
2023-03-14T03:11:06.000Z,11.39
2023-03-14T03:12:06.000Z,11.40
2023-03-14T03:13:06.000Z,11.38
2023-03-14T03:14:06.000Z,11.39
2023-03-14T03:15:07.000Z,11.37
2023-03-14T03:16:07.000Z,11.37
2023-03-14T03:17:06.000Z,11.36
2023-03-14T03:18:06.000Z,11.36
2023-03-14T03:19:06.000Z,11.35
2023-03-14T03:20:09.000Z,11.36
2023-03-14T03:21:08.000Z,11.36
2023-03-14T03:22:07.000Z,11.35
2023-03-14T03:23:07.000Z,11.34
2023-03-14T03:24:07.000Z,11.34
2023-03-14T03:25:08.000Z,11.34
2023-03-14T03:26:09.000Z,11.34
2023-03-14T03:27:07.000Z,11.31
2023-03-14T03:28:07.000Z,11.34
2023-03-14T03:29:07.000Z,11.31
2023-03-14T03:30:08.000Z,11.30
2023-03-14T03:31:08.000Z,11.32
2023-03-14T03:32:07.000Z,11.30
2023-03-14T03:33:07.000Z,11.28
2023-03-14T03:34:07.000Z,11.28
2023-03-14T03:35:07.000Z,11.26
2023-03-14T03:36:08.000Z,11.28
2023-03-14T03:37:07.000Z,11.26
2023-03-14T03:38:07.000Z,11.28
2023-03-14T03:39:07.000Z,11.29
2023-03-14T03:40:08.000Z,11.26
2023-03-14T03:41:07.000Z,11.29
2023-03-14T03:42:07.000Z,11.28
2023-03-14T03:43:07.000Z,11.28
2023-03-14T03:44:07.000Z,11.27
2023-03-14T03:45:08.000Z,11.25
2023-03-14T03:46:08.000Z,11.24
2023-03-14T03:47:07.000Z,11.24
2023-03-14T03:48:07.000Z,11.23
2023-03-14T03:49:07.000Z,11.23
2023-03-14T03:50:07.000Z,11.23
2023-03-14T03:51:10.000Z,11.22
2023-03-14T03:52:06.000Z,11.22
2023-03-14T03:53:06.000Z,11.22
2023-03-14T03:54:06.000Z,11.18
2023-03-14T03:55:07.000Z,11.21
2023-03-14T03:56:07.000Z,11.18
2023-03-14T03:57:06.000Z,11.18
2023-03-14T03:58:06.000Z,11.18
2023-03-14T03:59:06.000Z,11.17
2023-03-14T04:00:10.000Z,11.17
2023-03-14T04:01:07.000Z,11.17
2023-03-14T04:02:07.000Z,11.18
2023-03-14T04:03:06.000Z,11.18
2023-03-14T04:04:06.000Z,11.17
2023-03-14T04:05:07.000Z,11.17
2023-03-14T04:06:10.000Z,11.19
2023-03-14T04:07:06.000Z,11.18
2023-03-14T04:08:06.000Z,11.18
2023-03-14T04:09:08.000Z,11.18
2023-03-14T04:10:07.000Z,11.17
2023-03-14T04:11:07.000Z,11.18
2023-03-14T04:12:06.000Z,11.19
2023-03-14T04:13:06.000Z,11.18
2023-03-14T04:14:07.000Z,11.18
2023-03-14T04:15:07.000Z,11.16
2023-03-14T04:16:16.000Z,11.16
2023-03-14T04:17:07.000Z,11.16
2023-03-14T04:18:06.000Z,11.15
2023-03-14T04:19:06.000Z,11.16
2023-03-14T04:20:10.000Z,11.15
2023-03-14T04:21:06.000Z,11.16
2023-03-14T04:22:07.000Z,11.18
2023-03-14T04:23:07.000Z,11.17
2023-03-14T04:24:08.000Z,11.17
2023-03-14T04:25:07.000Z,11.17
2023-03-14T04:26:07.000Z,11.16
2023-03-14T04:27:07.000Z,11.17
2023-03-14T04:28:07.000Z,11.16
2023-03-14T04:29:07.000Z,11.16
2023-03-14T04:30:08.000Z,11.16
2023-03-14T04:31:12.000Z,11.15
2023-03-14T04:32:07.000Z,11.17
2023-03-14T04:33:07.000Z,11.16
2023-03-14T04:34:07.000Z,11.14
2023-03-14T04:35:07.000Z,11.14
2023-03-14T04:36:08.000Z,11.11
2023-03-14T04:37:07.000Z,11.12
2023-03-14T04:38:07.000Z,11.11
2023-03-14T04:39:07.000Z,11.12
2023-03-14T04:40:08.000Z,11.11
2023-03-14T04:41:07.000Z,11.11
2023-03-14T04:42:07.000Z,11.11
2023-03-14T04:43:11.000Z,11.10
2023-03-14T04:44:07.000Z,11.12
2023-03-14T04:45:07.000Z,11.12
2023-03-14T04:46:07.000Z,11.14
2023-03-14T04:47:07.000Z,11.11
2023-03-14T04:48:07.000Z,11.09
2023-03-14T04:49:07.000Z,11.11
2023-03-14T04:50:08.000Z,11.08
2023-03-14T04:51:07.000Z,11.09
2023-03-14T04:52:07.000Z,11.09
2023-03-14T04:53:07.000Z,11.07
2023-03-14T04:54:07.000Z,11.05
2023-03-14T04:55:07.000Z,11.06
2023-03-14T04:56:07.000Z,11.05
2023-03-14T04:57:07.000Z,11.07
2023-03-14T04:58:07.000Z,11.04
2023-03-14T04:59:08.000Z,11.04
2023-03-14T05:00:09.000Z,11.03
2023-03-14T05:01:07.000Z,11.03
2023-03-14T05:02:07.000Z,11.04
2023-03-14T05:03:07.000Z,11.05
2023-03-14T05:04:06.000Z,11.04
2023-03-14T05:05:07.000Z,11.04
2023-03-14T05:06:07.000Z,11.03
2023-03-14T05:07:07.000Z,11.04
2023-03-14T05:08:07.000Z,11.04
2023-03-14T05:09:07.000Z,11.04
2023-03-14T05:10:08.000Z,11.03
2023-03-14T05:11:09.000Z,11.04
2023-03-14T05:12:08.000Z,11.05
2023-03-14T05:13:07.000Z,11.04
2023-03-14T05:14:07.000Z,11.04
2023-03-14T05:15:08.000Z,11.04
2023-03-14T05:16:09.000Z,11.03
2023-03-14T05:17:07.000Z,11.02
2023-03-14T05:18:07.000Z,11.03
2023-03-14T05:19:07.000Z,11.04
2023-03-14T05:20:12.000Z,11.06
2023-03-14T05:21:07.000Z,11.08
2023-03-14T05:22:07.000Z,11.06
2023-03-14T05:23:07.000Z,11.08
2023-03-14T05:24:07.000Z,11.06
2023-03-14T05:25:07.000Z,11.07
2023-03-14T05:26:07.000Z,11.08
2023-03-14T05:27:07.000Z,11.07
2023-03-14T05:28:06.000Z,11.09
2023-03-14T05:29:07.000Z,11.08
2023-03-14T05:30:10.000Z,11.09
2023-03-14T05:31:08.000Z,11.09
2023-03-14T05:32:07.000Z,11.08
2023-03-14T05:33:07.000Z,11.06
2023-03-14T05:34:07.000Z,11.09
2023-03-14T05:35:07.000Z,11.09
2023-03-14T05:36:07.000Z,11.10
2023-03-14T05:37:07.000Z,11.09
2023-03-14T05:38:07.000Z,11.09
2023-03-14T05:39:07.000Z,11.06
2023-03-14T05:40:07.000Z,11.09
2023-03-14T05:41:07.000Z,11.09
2023-03-14T05:42:07.000Z,11.10
2023-03-14T05:43:07.000Z,11.09
2023-03-14T05:44:07.000Z,11.10
2023-03-14T05:45:07.000Z,11.09
2023-03-14T05:46:07.000Z,11.10
2023-03-14T05:47:07.000Z,11.10
2023-03-14T05:48:07.000Z,11.11
2023-03-14T05:49:06.000Z,11.10
2023-03-14T05:50:07.000Z,11.11
2023-03-14T05:51:07.000Z,11.14
2023-03-14T05:52:07.000Z,11.12
2023-03-14T05:53:07.000Z,11.11
2023-03-14T05:54:06.000Z,11.11
2023-03-14T05:55:07.000Z,11.11
2023-03-14T05:56:07.000Z,11.12
2023-03-14T05:57:06.000Z,11.14
2023-03-14T05:58:07.000Z,11.12
2023-03-14T05:59:08.000Z,11.13
2023-03-14T06:00:08.000Z,11.16
2023-03-14T06:01:07.000Z,11.16
2023-03-14T06:02:07.000Z,11.17
2023-03-14T06:03:06.000Z,11.16
2023-03-14T06:04:07.000Z,11.17
2023-03-14T06:05:07.000Z,11.17
2023-03-14T06:06:07.000Z,11.17
2023-03-14T06:07:06.000Z,11.20
2023-03-14T06:08:06.000Z,11.18
2023-03-14T06:09:06.000Z,11.18
2023-03-14T06:10:07.000Z,11.20
2023-03-14T06:11:06.000Z,11.21
2023-03-14T06:12:07.000Z,11.21
2023-03-14T06:13:07.000Z,11.21
2023-03-14T06:14:07.000Z,11.19
2023-03-14T06:15:07.000Z,11.21
2023-03-14T06:16:07.000Z,11.20
2023-03-14T06:17:06.000Z,11.22
2023-03-14T06:18:07.000Z,11.21
2023-03-14T06:19:06.000Z,11.21
2023-03-14T06:20:08.000Z,11.20
2023-03-14T06:21:07.000Z,11.21
2023-03-14T06:22:07.000Z,11.18
2023-03-14T06:23:08.000Z,11.19
2023-03-14T06:24:06.000Z,11.19
2023-03-14T06:25:07.000Z,11.17
2023-03-14T06:26:06.000Z,11.16
2023-03-14T06:27:06.000Z,11.16
2023-03-14T06:28:06.000Z,11.16
2023-03-14T06:29:06.000Z,11.17
2023-03-14T06:30:07.000Z,11.17
2023-03-14T06:31:06.000Z,11.16
2023-03-14T06:32:06.000Z,11.17
2023-03-14T06:33:06.000Z,11.17
2023-03-14T06:34:06.000Z,11.16
2023-03-14T06:35:07.000Z,11.17
2023-03-14T06:36:07.000Z,11.16
2023-03-14T06:37:06.000Z,11.17
2023-03-14T06:38:06.000Z,11.17
2023-03-14T06:39:06.000Z,11.19
2023-03-14T06:40:10.000Z,11.19
2023-03-14T06:41:06.000Z,11.19
2023-03-14T06:42:06.000Z,11.17
2023-03-14T06:43:06.000Z,11.17
2023-03-14T06:44:06.000Z,11.19
2023-03-14T06:45:07.000Z,11.19
2023-03-14T06:46:06.000Z,11.18
2023-03-14T06:47:06.000Z,11.21
2023-03-14T06:48:06.000Z,11.21
2023-03-14T06:49:06.000Z,11.18
2023-03-14T06:50:08.000Z,11.21
2023-03-14T06:51:06.000Z,11.21
2023-03-14T06:52:06.000Z,11.21
2023-03-14T06:53:06.000Z,11.22
2023-03-14T06:54:06.000Z,11.20
2023-03-14T06:55:07.000Z,11.21
2023-03-14T06:56:07.000Z,11.21
2023-03-14T06:57:07.000Z,11.21
2023-03-14T06:58:08.000Z,11.22
2023-03-14T06:59:07.000Z,11.21
2023-03-14T07:00:07.000Z,11.22
2023-03-14T07:01:19.000Z,11.21
2023-03-14T07:02:12.000Z,11.21
2023-03-14T07:03:07.000Z,11.21
2023-03-14T07:04:08.000Z,11.21
2023-03-14T07:05:07.000Z,11.22
2023-03-14T07:06:07.000Z,11.21
2023-03-14T07:07:07.000Z,11.22
2023-03-14T07:08:07.000Z,11.22
2023-03-14T07:09:07.000Z,11.22
2023-03-14T07:10:09.000Z,11.19
2023-03-14T07:11:07.000Z,11.19
2023-03-14T07:12:07.000Z,11.20
2023-03-14T07:13:07.000Z,11.22
2023-03-14T07:14:07.000Z,11.24
2023-03-14T07:15:07.000Z,11.21
2023-03-14T07:16:07.000Z,11.18
2023-03-14T07:17:07.000Z,11.19
2023-03-14T07:18:07.000Z,11.18
2023-03-14T07:19:07.000Z,11.20
2023-03-14T07:20:08.000Z,11.19
2023-03-14T07:21:08.000Z,11.18
2023-03-14T07:22:07.000Z,11.20
2023-03-14T07:23:07.000Z,11.21
2023-03-14T07:24:07.000Z,11.21
2023-03-14T07:25:09.000Z,11.18
2023-03-14T07:26:07.000Z,11.21
2023-03-14T07:27:06.000Z,11.18
2023-03-14T07:28:06.000Z,11.22
2023-03-14T07:29:06.000Z,11.21
2023-03-14T07:30:07.000Z,11.19
2023-03-14T07:31:06.000Z,11.22
2023-03-14T07:32:07.000Z,11.22
2023-03-14T07:33:06.000Z,11.26
2023-03-14T07:34:06.000Z,11.25
2023-03-14T07:35:07.000Z,11.24
2023-03-14T07:36:07.000Z,11.27
2023-03-14T07:37:06.000Z,11.27
2023-03-14T07:38:06.000Z,11.29
2023-03-14T07:39:06.000Z,11.29
2023-03-14T07:40:10.000Z,11.30
2023-03-14T07:41:07.000Z,11.32
2023-03-14T07:42:06.000Z,11.34
2023-03-14T07:43:06.000Z,11.33
2023-03-14T07:44:06.000Z,11.35
2023-03-14T07:45:08.000Z,11.35
2023-03-14T07:46:07.000Z,11.36
2023-03-14T07:47:06.000Z,11.38
2023-03-14T07:48:06.000Z,11.37
2023-03-14T07:49:07.000Z,11.41
2023-03-14T07:50:08.000Z,11.40
2023-03-14T07:51:07.000Z,11.43
2023-03-14T07:52:06.000Z,11.44
2023-03-14T07:53:06.000Z,11.44
2023-03-14T07:54:07.000Z,11.47
2023-03-14T07:55:07.000Z,11.47
2023-03-14T07:56:06.000Z,11.47
2023-03-14T07:57:06.000Z,11.49
2023-03-14T07:58:06.000Z,11.48
2023-03-14T07:59:06.000Z,11.51
2023-03-14T08:00:07.000Z,11.50
2023-03-14T08:01:06.000Z,11.53
2023-03-14T08:02:11.000Z,11.53
2023-03-14T08:03:06.000Z,11.53
2023-03-14T08:04:06.000Z,11.54
2023-03-14T08:05:06.000Z,11.54
2023-03-14T08:06:06.000Z,11.58
2023-03-14T08:07:06.000Z,11.56
2023-03-14T08:08:06.000Z,11.60
2023-03-14T08:09:06.000Z,11.59
2023-03-14T08:10:07.000Z,11.60
2023-03-14T08:11:08.000Z,11.60
2023-03-14T08:12:06.000Z,11.62
2023-03-14T08:13:06.000Z,11.63
2023-03-14T08:14:06.000Z,11.65
2023-03-14T08:15:07.000Z,11.66
2023-03-14T08:16:07.000Z,11.69
2023-03-14T08:17:07.000Z,11.69
2023-03-14T08:18:06.000Z,11.71
2023-03-14T08:19:06.000Z,11.72
2023-03-14T08:20:08.000Z,11.74
2023-03-14T08:21:06.000Z,11.75
2023-03-14T08:22:06.000Z,11.78
2023-03-14T08:23:06.000Z,11.79
2023-03-14T08:24:07.000Z,11.80
2023-03-14T08:25:06.000Z,11.83
2023-03-14T08:26:06.000Z,11.83
2023-03-14T08:27:06.000Z,11.82
2023-03-14T08:28:06.000Z,11.83
2023-03-14T08:29:07.000Z,11.84
2023-03-14T08:30:10.000Z,11.87
2023-03-14T08:31:06.000Z,11.84
2023-03-14T08:32:06.000Z,11.86
2023-03-14T08:33:06.000Z,11.85
2023-03-14T08:34:06.000Z,11.85
2023-03-14T08:35:07.000Z,11.89
2023-03-14T08:36:06.000Z,11.90
2023-03-14T08:37:06.000Z,11.97
2023-03-14T08:38:06.000Z,11.99
2023-03-14T08:39:07.000Z,12.03
2023-03-14T08:40:07.000Z,12.04
2023-03-14T08:41:07.000Z,12.07
2023-03-14T08:42:06.000Z,12.07
2023-03-14T08:43:06.000Z,12.08
2023-03-14T08:44:06.000Z,12.08
2023-03-14T08:45:07.000Z,12.08
2023-03-14T08:46:06.000Z,12.09
2023-03-14T08:47:06.000Z,12.05
2023-03-14T08:48:06.000Z,12.07
2023-03-14T08:49:06.000Z,12.05
2023-03-14T08:50:08.000Z,12.05
2023-03-14T08:51:11.000Z,12.04
2023-03-14T08:52:06.000Z,12.08
2023-03-14T08:53:06.000Z,12.09
2023-03-14T08:54:09.000Z,12.08
2023-03-14T08:55:08.000Z,12.03
2023-03-14T08:56:07.000Z,12.02
2023-03-14T08:57:06.000Z,12.02
2023-03-14T08:58:06.000Z,12.01
2023-03-14T08:59:07.000Z,12.02
2023-03-14T09:00:13.000Z,12.04
2023-03-14T09:01:10.000Z,12.07
2023-03-14T09:02:10.000Z,12.07
2023-03-14T09:03:06.000Z,12.10
2023-03-14T09:04:06.000Z,12.09
2023-03-14T09:05:07.000Z,12.08
2023-03-14T09:06:08.000Z,12.10
2023-03-14T09:07:06.000Z,12.10
2023-03-14T09:08:06.000Z,12.05
2023-03-14T09:09:06.000Z,12.08
2023-03-14T09:10:08.000Z,12.08
2023-03-14T09:11:07.000Z,12.05
2023-03-14T09:12:06.000Z,12.06
2023-03-14T09:13:06.000Z,12.07
2023-03-14T09:14:06.000Z,12.05
2023-03-14T09:15:07.000Z,12.03
2023-03-14T09:16:07.000Z,12.03
2023-03-14T09:17:07.000Z,12.02
2023-03-14T09:18:06.000Z,12.02
2023-03-14T09:19:06.000Z,12.02
2023-03-14T09:20:07.000Z,12.00
2023-03-14T09:21:06.000Z,11.97
2023-03-14T09:22:06.000Z,11.97
2023-03-14T09:23:06.000Z,11.95
2023-03-14T09:24:06.000Z,11.93
2023-03-14T09:25:06.000Z,11.93
2023-03-14T09:26:06.000Z,11.90
2023-03-14T09:27:07.000Z,11.86
2023-03-14T09:28:06.000Z,11.88
2023-03-14T09:29:07.000Z,11.86
2023-03-14T09:30:07.000Z,11.86
2023-03-14T09:31:09.000Z,11.90
2023-03-14T09:32:06.000Z,11.88
2023-03-14T09:33:06.000Z,11.92
2023-03-14T09:34:06.000Z,11.96
2023-03-14T09:35:07.000Z,11.94
2023-03-14T09:36:07.000Z,11.97
2023-03-14T09:37:06.000Z,11.99
2023-03-14T09:38:06.000Z,12.02
2023-03-14T09:39:06.000Z,12.03
2023-03-14T09:40:16.000Z,12.01
2023-03-14T09:41:16.000Z,12.05
2023-03-14T09:42:12.000Z,12.05
2023-03-14T09:43:13.000Z,12.06
2023-03-14T09:44:23.000Z,12.09
2023-03-14T09:45:14.000Z,12.06
2023-03-14T09:46:09.000Z,12.07
2023-03-14T09:47:11.000Z,12.06
2023-03-14T09:48:14.000Z,12.05
2023-03-14T09:49:21.000Z,12.10
2023-03-14T09:50:13.000Z,12.10
2023-03-14T09:51:13.000Z,12.11
2023-03-14T09:52:27.000Z,12.15
2023-03-14T09:53:13.000Z,12.14
2023-03-14T09:54:31.000Z,12.13
2023-03-14T09:55:15.000Z,12.16
2023-03-14T09:56:13.000Z,12.18
2023-03-14T09:57:13.000Z,12.22
2023-03-14T09:58:12.000Z,12.25
2023-03-14T09:59:11.000Z,12.22
2023-03-14T10:00:16.000Z,12.22
2023-03-14T10:01:14.000Z,12.23
2023-03-14T10:02:19.000Z,12.23
2023-03-14T10:03:27.000Z,12.26
2023-03-14T10:04:14.000Z,12.27
2023-03-14T10:05:15.000Z,12.26
2023-03-14T10:06:12.000Z,12.21
2023-03-14T10:07:13.000Z,12.20
2023-03-14T10:08:10.000Z,12.20
2023-03-14T10:09:16.000Z,12.17
2023-03-14T10:10:26.000Z,12.16
2023-03-14T10:11:15.000Z,12.14
2023-03-14T10:12:08.000Z,12.10
2023-03-14T10:13:16.000Z,12.11
2023-03-14T10:14:10.000Z,12.10
2023-03-14T10:15:10.000Z,12.08
2023-03-14T10:16:07.000Z,12.12
2023-03-14T10:17:09.000Z,12.10
2023-03-14T10:18:12.000Z,12.09
2023-03-14T10:19:11.000Z,12.03
2023-03-14T10:20:30.000Z,12.03
2023-03-14T10:21:16.000Z,12.01
2023-03-14T10:22:13.000Z,12.03
2023-03-14T10:23:22.000Z,12.02
2023-03-14T10:24:39.000Z,12.01
2023-03-14T10:25:27.000Z,12.04
2023-03-14T10:26:13.000Z,12.04
2023-03-14T10:27:19.000Z,12.04
2023-03-14T10:28:16.000Z,12.05
2023-03-14T10:29:11.000Z,12.01
2023-03-14T10:30:26.000Z,11.97
2023-03-14T10:31:06.000Z,11.96
2023-03-14T10:32:19.000Z,11.99
2023-03-14T10:33:09.000Z,11.99
2023-03-14T10:34:16.000Z,11.99
2023-03-14T10:35:19.000Z,12.00
2023-03-14T10:36:19.000Z,11.99
2023-03-14T10:37:21.000Z,12.02
2023-03-14T10:38:12.000Z,11.99
2023-03-14T10:39:16.000Z,11.97
2023-03-14T10:40:13.000Z,11.96
2023-03-14T10:41:16.000Z,11.92
2023-03-14T10:42:26.000Z,11.94
2023-03-14T10:43:15.000Z,11.93
2023-03-14T10:44:11.000Z,11.89
2023-03-14T10:45:19.000Z,11.90
2023-03-14T10:46:14.000Z,11.89
2023-03-14T10:47:16.000Z,11.88
2023-03-14T10:48:17.000Z,11.91
2023-03-14T10:49:06.000Z,11.89
2023-03-14T10:50:16.000Z,11.90
2023-03-14T10:51:26.000Z,11.90
2023-03-14T10:52:13.000Z,11.89
2023-03-14T10:53:08.000Z,11.87
2023-03-14T10:54:18.000Z,11.85
2023-03-14T10:55:11.000Z,11.85
2023-03-14T10:56:10.000Z,11.86
2023-03-14T10:57:06.000Z,11.80
2023-03-14T10:58:25.000Z,11.78
2023-03-14T10:59:12.000Z,11.77
2023-03-14T11:00:23.000Z,11.72
2023-03-14T11:01:28.000Z,11.71
2023-03-14T11:02:29.000Z,11.71
2023-03-14T11:03:12.000Z,11.71
2023-03-14T11:04:20.000Z,11.66
2023-03-14T11:05:16.000Z,11.64
2023-03-14T11:06:23.000Z,11.64
2023-03-14T11:07:16.000Z,11.62
2023-03-14T11:08:11.000Z,11.58
2023-03-14T11:09:17.000Z,11.56
2023-03-14T11:10:16.000Z,11.54
2023-03-14T11:11:18.000Z,11.48
2023-03-14T11:12:29.000Z,11.47
2023-03-14T11:13:25.000Z,11.43
2023-03-14T11:14:16.000Z,11.46
2023-03-14T11:15:19.000Z,11.46
2023-03-14T11:16:16.000Z,11.41
2023-03-14T11:17:17.000Z,11.39
2023-03-14T11:18:21.000Z,11.38
2023-03-14T11:19:22.000Z,11.36
2023-03-14T11:20:18.000Z,11.36
2023-03-14T11:21:20.000Z,11.32
2023-03-14T11:22:20.000Z,11.30
2023-03-14T11:23:20.000Z,11.31
2023-03-14T11:24:16.000Z,11.31
2023-03-14T11:25:20.000Z,11.28
2023-03-14T11:26:16.000Z,11.29
2023-03-14T11:27:19.000Z,11.24
2023-03-14T11:28:25.000Z,11.24
2023-03-14T11:29:17.000Z,11.25
2023-03-14T11:30:16.000Z,11.20
2023-03-14T11:31:17.000Z,11.22
2023-03-14T11:32:27.000Z,11.23
2023-03-14T11:33:16.000Z,11.24
2023-03-14T11:34:17.000Z,11.23
2023-03-14T11:35:17.000Z,11.18
2023-03-14T11:36:10.000Z,11.18
2023-03-14T11:37:16.000Z,11.19
2023-03-14T11:38:27.000Z,11.19
2023-03-14T11:39:15.000Z,11.20
2023-03-14T11:40:17.000Z,11.19
2023-03-14T11:41:18.000Z,11.18
2023-03-14T11:42:12.000Z,11.20
2023-03-14T11:43:16.000Z,11.18
2023-03-14T11:44:18.000Z,11.21
2023-03-14T11:45:17.000Z,11.22
2023-03-14T11:46:16.000Z,11.20
2023-03-14T11:47:17.000Z,11.21
2023-03-14T11:48:17.000Z,11.20
2023-03-14T11:49:23.000Z,11.20
2023-03-14T11:50:26.000Z,11.17
2023-03-14T11:51:29.000Z,11.18
2023-03-14T11:52:19.000Z,11.16
2023-03-14T11:53:19.000Z,11.15
2023-03-14T11:54:18.000Z,11.11
2023-03-14T11:55:17.000Z,11.05
2023-03-14T11:56:17.000Z,11.03
2023-03-14T11:57:13.000Z,11.00
2023-03-14T11:58:16.000Z,11.00
2023-03-14T11:59:16.000Z,10.96
2023-03-14T12:00:18.000Z,10.96
2023-03-14T12:01:12.000Z,10.96
2023-03-14T12:02:16.000Z,10.91
2023-03-14T12:03:26.000Z,10.87
2023-03-14T12:04:20.000Z,10.85
2023-03-14T12:05:22.000Z,10.85
2023-03-14T12:06:39.000Z,10.84
2023-03-14T12:07:36.000Z,10.82
2023-03-14T12:08:26.000Z,10.80
2023-03-14T12:09:08.000Z,10.80
2023-03-14T12:10:06.000Z,10.78
2023-03-14T12:11:14.000Z,10.75
2023-03-14T12:12:14.000Z,10.76
2023-03-14T12:13:09.000Z,10.73
2023-03-14T12:14:16.000Z,10.75
2023-03-14T12:15:18.000Z,10.75
2023-03-14T12:16:31.000Z,10.72
2023-03-14T12:17:19.000Z,10.72
2023-03-14T12:18:16.000Z,10.67
2023-03-14T12:19:24.000Z,10.65
2023-03-14T12:20:16.000Z,10.61
2023-03-14T12:21:09.000Z,10.61
2023-03-14T12:22:16.000Z,10.62
2023-03-14T12:23:11.000Z,10.60
2023-03-14T12:24:18.000Z,10.59
2023-03-14T12:25:23.000Z,10.52
2023-03-14T12:26:23.000Z,10.49
2023-03-14T12:27:27.000Z,10.44
2023-03-14T12:28:15.000Z,10.43
2023-03-14T12:29:15.000Z,10.35
2023-03-14T12:30:20.000Z,10.36
2023-03-14T12:31:16.000Z,10.36
2023-03-14T12:32:20.000Z,10.36
2023-03-14T12:33:20.000Z,10.32
2023-03-14T12:34:25.000Z,10.30
2023-03-14T12:35:26.000Z,10.28
2023-03-14T12:36:23.000Z,10.23
2023-03-14T12:37:16.000Z,10.25
2023-03-14T12:38:26.000Z,10.24
2023-03-14T12:39:23.000Z,10.28
2023-03-14T12:40:17.000Z,10.21
2023-03-14T12:41:16.000Z,10.11
2023-03-14T12:42:16.000Z,10.09
2023-03-14T12:43:16.000Z,9.98
2023-03-14T12:44:16.000Z,9.92
2023-03-14T12:45:29.000Z,9.87
2023-03-14T12:46:13.000Z,9.79
2023-03-14T12:47:16.000Z,9.75
2023-03-14T12:48:24.000Z,9.74
2023-03-14T12:49:08.000Z,9.70
2023-03-14T12:50:13.000Z,9.71
2023-03-14T12:51:12.000Z,9.66
2023-03-14T12:52:16.000Z,9.62
2023-03-14T12:53:16.000Z,9.56